Airfield :
LOGIN :

Register | Disclaimer

   EN    FR    IT 

 










Legend :    VFR   Marginal VFR   IFR   Intensive IFR   Very Intensive IFR
Visi :
Ceiling :
>= 8 km
>= 3000ft
5 to 8 km
1000 to 3000 ft
1500m to 5 km
500 to 1000 ft
800 to 1500m
200 to 500 ft
< 800m
< 200 ft
Symbols :   Thunderstorms  Fog  Heavy snow  Heavy precipitations  Wind > 20 kt
SIGMETs :     Misc.  Thunderstorms  Icing  Turbulence  Mountain Waves  Volcanic Ashes







- Airport Elevation : 375 ft
- IATA code : MST


EHBK - Maastricht Aachen

CURRENT METAR :
  • 220355Z AUTO 17003KT 9999 NSC 08/07 Q1019

EXPIRED METARs :
  • 220325Z AUTO 17004KT 9999 NCD 08/08 Q1019
  • 220255Z AUTO 18004KT 9999 NSC 08/07 Q1019
  • 220225Z AUTO 19004KT 9999 NCD 09/07 Q1019
  • 220155Z AUTO 17004KT 9999 NSC 09/08 Q1019
  • 220125Z AUTO 17004KT 9999 NSC 09/08 Q1019

TAF TAF EHBK
Valid from the 22 at 00:00 until the 23 at 06:00 UTC


212249Z 2200/2306 18005KT CAVOK
PROB30
TEMPO 2214/2218 6000 -SHRA -RA BKN008 FEW018CB
BECMG 2223/2301 4000 BR BKN008
PROB40 2300/2306 1200 BCFG BKN004
No reported NOTAMs for that airfield.



MET'MAP, your aeronautical weather chart ! - Copyright ORBIFLY December 2007 - Disclaimer

ORBIFLY MET'MAP TEAM :

Programming & Development : Alexandra Zaïnal
Concept & Development : Baudouin d'Aumeries
Co-Development & Prog : Marc-Olivier Méhu
Technical & hardware support : Manuel Goepfert

Contact : metmap@orbifly.com




SOURCES & CREDITS :

   NOAA